Time;durP1;ratioP1;P1;durP2;ratioP2;P2;SDS_P1;SDS_P2;PMS_P1;PMS_P2;Temp;Humidity;BMP_temperature;BMP_pressure;BME280_temperature;BME280_humidity;BME280_pressure;Samples;Min_cycle;Max_cycle;Signal;HPM_P1;HPM_P2
2023/08/07 00:02:04;;;;;;;0.90;0.90;;;;;;;13.30;91.37;97438.84;5001644;28;20120;-77
2023/08/07 00:04:30;;;;;;;1.17;1.08;;;;;;;13.55;91.21;97490.06;4997569;28;20028;-78
2023/08/07 00:06:55;;;;;;;1.50;0.90;;;;;;;13.30;92.09;97459.66;5001264;28;20037;-77
2023/08/07 00:09:20;;;;;;;1.80;1.00;;;;;;;13.37;91.89;97465.56;4999425;28;20024;-77
2023/08/07 00:11:46;;;;;;;1.10;1.00;;;;;;;13.54;91.61;97477.63;5030264;28;20039;-79
2023/08/07 00:14:11;;;;;;;0.90;0.90;;;;;;;13.38;92.47;97484.22;5036115;28;20025;-77
2023/08/07 00:16:37;;;;;;;0.90;0.90;;;;;;;13.48;91.93;97489.56;5026661;28;20038;-76
2023/08/07 00:19:02;;;;;;;0.90;0.90;;;;;;;13.57;91.11;97485.19;5007607;28;20029;-77
2023/08/07 00:21:28;;;;;;;1.33;1.23;;;;;;;13.38;91.63;97457.16;5014375;28;20053;-77
2023/08/07 00:23:54;;;;;;;0.90;0.90;;;;;;;13.30;91.29;97446.13;5048427;28;20037;-77
2023/08/07 00:26:20;;;;;;;1.67;0.80;;;;;;;13.37;91.46;97463.66;5001802;28;20447;-78
2023/08/07 00:28:46;;;;;;;0.93;0.90;;;;;;;13.45;91.50;97473.88;5014443;28;20395;-76
2023/08/07 00:31:12;;;;;;;0.75;0.70;;;;;;;13.39;92.19;97469.59;5016890;28;20396;-76
2023/08/07 00:33:39;;;;;;;3.38;1.10;;;;;;;13.51;91.97;97478.16;5001551;28;20586;-77
2023/08/07 00:36:04;;;;;;;0.80;0.80;;;;;;;13.51;91.85;97471.97;5045498;28;20463;-76
2023/08/07 00:38:30;;;;;;;1.10;1.00;;;;;;;13.41;92.51;97464.72;5033787;28;20124;-76
2023/08/07 00:40:55;;;;;;;2.90;1.10;;;;;;;13.42;92.59;97469.03;5028162;28;20683;-76
2023/08/07 00:43:21;;;;;;;3.60;1.00;;;;;;;13.41;92.13;97467.44;5013616;28;20016;-76
2023/08/07 00:45:47;;;;;;;0.98;0.95;;;;;;;13.44;92.44;97472.25;5045738;28;20119;-77
2023/08/07 00:48:13;;;;;;;1.60;1.00;;;;;;;13.51;92.31;97480.88;5029886;28;20107;-77
2023/08/07 00:50:40;;;;;;;1.30;1.20;;;;;;;13.31;92.44;97451.25;5000582;28;20065;-77
2023/08/07 00:53:05;;;;;;;2.10;1.30;;;;;;;13.53;93.03;97499.53;5013097;28;20033;-77
2023/08/07 00:55:31;;;;;;;1.17;1.08;;;;;;;13.21;93.09;97439.72;5016301;28;20083;-77
2023/08/07 00:57:58;;;;;;;1.67;1.00;;;;;;;13.37;93.34;97487.19;5013112;28;20695;-77
2023/08/07 01:00:24;;;;;;;1.42;1.15;;;;;;;13.32;93.66;97490.75;5000230;28;20037;-77
2023/08/07 01:02:51;;;;;;;1.83;1.30;;;;;;;13.35;93.15;97495.56;5012717;28;20407;-75
2023/08/07 01:05:18;;;;;;;2.15;1.20;;;;;;;13.32;93.48;97492.63;5016074;28;20034;-76
2023/08/07 01:07:43;;;;;;;1.80;1.20;;;;;;;13.46;93.19;97505.28;5013186;28;20025;-77
2023/08/07 01:10:09;;;;;;;1.42;1.20;;;;;;;13.38;93.27;97500.44;4997070;28;20048;-77
2023/08/07 01:12:43;;;;;;;1.50;1.40;;;;;;;13.29;93.74;97491.28;5012469;28;20021;-77
2023/08/07 01:15:14;;;;;;;1.77;1.42;;;;;;;13.31;93.86;97505.34;5016126;28;20045;-76
2023/08/07 01:17:42;;;;;;;1.58;1.48;;;;;;;13.35;93.66;97500.97;5012861;28;20038;-77
2023/08/07 01:20:08;;;;;;;1.40;1.30;;;;;;;13.32;93.39;97485.34;4999097;28;20171;-77
2023/08/07 01:22:33;;;;;;;2.40;1.45;;;;;;;13.19;93.94;97502.16;5012742;28;20048;-77
2023/08/07 01:24:59;;;;;;;2.10;1.90;;;;;;;13.22;94.10;97479.16;4999963;28;20018;-77
2023/08/07 01:27:39;;;;;;;1.80;1.70;;;;;;;13.28;93.38;97524.81;5029822;28;20586;-76
2023/08/07 01:30:17;;;;;;;1.90;1.80;;;;;;;13.09;93.93;97494.91;5000114;28;20488;-76
2023/08/07 01:33:10;;;;;;;2.20;2.00;;;;;;;13.34;94.40;97518.31;5010871;28;20076;-76
2023/08/07 01:35:47;;;;;;;2.38;1.90;;;;;;;13.25;93.92;97511.06;5048625;28;20033;-76
2023/08/07 01:38:13;;;;;;;2.75;2.13;;;;;;;13.27;93.72;97512.41;4990409;28;20045;-76
2023/08/07 01:40:40;;;;;;;3.30;2.33;;;;;;;13.37;93.17;97535.88;5011123;28;20091;-76
2023/08/07 01:43:06;;;;;;;3.65;2.30;;;;;;;13.19;93.91;97523.78;5009063;28;20029;-76
2023/08/07 01:45:31;;;;;;;2.67;2.47;;;;;;;13.22;93.36;97523.25;5016091;28;20599;-74
2023/08/07 01:47:57;;;;;;;3.47;2.40;;;;;;;13.20;93.57;97509.19;5025331;28;20063;-76
2023/08/07 01:50:23;;;;;;;3.65;2.80;;;;;;;13.27;93.32;97534.03;5016467;28;20032;-76
2023/08/07 01:52:49;;;;;;;3.33;2.95;;;;;;;13.27;93.26;97547.56;4997658;28;20033;-76
2023/08/07 01:55:18;;;;;;;2.85;2.40;;;;;;;13.20;93.35;97547.03;5027873;28;20472;-76
2023/08/07 01:57:52;;;;;;;4.00;2.60;;;;;;;13.33;92.54;97551.84;4995081;28;20036;-75
2023/08/07 02:00:18;;;;;;;2.70;2.50;;;;;;;13.18;92.53;97538.41;5004299;28;20044;-75
2023/08/07 02:02:45;;;;;;;2.80;2.53;;;;;;;13.21;92.67;97570.28;5021039;28;20021;-76
2023/08/07 02:05:10;;;;;;;3.00;2.70;;;;;;;13.20;92.90;97557.88;5033656;28;20041;-76
2023/08/07 02:07:36;;;;;;;3.30;3.00;;;;;;;13.05;93.81;97550.59;5017899;28;20235;-76
2023/08/07 02:10:02;;;;;;;3.30;2.53;;;;;;;13.24;93.44;97569.72;5029804;28;20052;-74
2023/08/07 02:12:29;;;;;;;3.30;2.88;;;;;;;13.11;93.18;97564.94;5027028;28;20032;-75
2023/08/07 02:14:55;;;;;;;4.90;3.10;;;;;;;13.01;92.95;97548.69;5010541;28;20080;-76
2023/08/07 02:17:21;;;;;;;3.78;3.47;;;;;;;12.95;93.69;97547.91;4994283;28;20103;-76
2023/08/07 02:19:46;;;;;;;3.30;3.00;;;;;;;13.23;92.45;97568.13;5007258;28;20037;-75
2023/08/07 02:22:12;;;;;;;3.25;2.95;;;;;;;13.10;92.15;97557.88;5036629;28;20112;-75
2023/08/07 02:24:37;;;;;;;3.17;2.97;;;;;;;13.03;92.59;97557.34;5030042;28;20734;-75
2023/08/07 02:27:03;;;;;;;3.40;3.10;;;;;;;13.07;93.69;97570.06;5030109;28;20040;-76
2023/08/07 02:29:29;;;;;;;3.47;2.70;;;;;;;13.06;93.37;97570.34;5003732;28;20037;-75
2023/08/07 02:31:56;;;;;;;3.50;2.80;;;;;;;13.22;92.52;97579.22;5033738;28;20479;-76
2023/08/07 02:34:22;;;;;;;2.78;2.58;;;;;;;13.02;93.33;97582.78;4981409;28;20085;-76
2023/08/07 02:36:47;;;;;;;2.97;2.60;;;;;;;13.06;94.21;97583.88;5027560;28;20021;-77
2023/08/07 02:39:13;;;;;;;2.65;2.30;;;;;;;13.12;93.31;97577.34;5010637;28;20116;-75
2023/08/07 02:41:38;;;;;;;2.35;2.13;;;;;;;13.00;93.43;97579.50;5010539;28;20029;-77
2023/08/07 02:44:04;;;;;;;3.55;2.00;;;;;;;12.88;92.64;97560.88;5002086;28;20033;-78
2023/08/07 02:46:29;;;;;;;2.08;1.77;;;;;;;12.84;92.16;97559.81;5015974;28;20463;-76
2023/08/07 02:48:55;;;;;;;1.50;1.40;;;;;;;13.02;93.18;97604.41;5036241;28;20033;-77
2023/08/07 02:51:20;;;;;;;2.00;1.80;;;;;;;12.95;92.76;97588.44;4986164;28;20121;-77
2023/08/07 02:53:46;;;;;;;1.90;1.67;;;;;;;13.05;92.50;97601.13;5032380;28;20037;-77
2023/08/07 02:56:11;;;;;;;2.20;1.80;;;;;;;12.98;92.30;97597.91;4998790;28;20039;-76
2023/08/07 02:58:36;;;;;;;2.70;1.65;;;;;;;12.97;93.38;97612.50;5036542;28;20037;-77
2023/08/07 03:01:08;;;;;;;1.70;1.60;;;;;;;12.60;92.28;97558.81;5015049;28;20032;-77
2023/08/07 03:03:34;;;;;;;1.80;1.70;;;;;;;12.95;93.03;97603.88;5025192;28;20033;-76
2023/08/07 03:05:59;;;;;;;2.53;1.30;;;;;;;12.88;92.59;97598.72;5021112;28;20026;-76
2023/08/07 03:08:25;;;;;;;2.80;1.75;;;;;;;12.87;92.20;97590.91;4991835;28;20029;-76
2023/08/07 03:10:57;;;;;;;2.40;1.58;;;;;;;12.98;92.41;97616.81;5056959;28;20412;-76
2023/08/07 03:13:27;;;;;;;2.92;1.60;;;;;;;12.95;92.74;97622.78;5010757;28;20423;-76
2023/08/07 03:16:12;;;;;;;1.90;1.48;;;;;;;12.96;92.05;97624.41;5007782;28;20028;-76
2023/08/07 03:18:38;;;;;;;3.92;1.80;;;;;;;12.66;93.18;97567.69;5038868;28;20042;-76
2023/08/07 03:21:03;;;;;;;1.80;1.52;;;;;;;12.70;92.29;97595.78;5014029;28;20079;-76
2023/08/07 03:23:29;;;;;;;1.50;1.40;;;;;;;12.33;92.07;97537.50;5011231;28;20028;-76
2023/08/07 03:26:07;;;;;;;1.95;1.67;;;;;;;12.80;92.05;97614.69;5024114;28;20485;-76
2023/08/07 03:28:34;;;;;;;2.08;1.50;;;;;;;12.88;92.86;97639.25;5025891;28;20080;-77
2023/08/07 03:30:59;;;;;;;1.60;1.45;;;;;;;12.78;92.65;97625.78;4999398;28;20109;-77
2023/08/07 03:33:26;;;;;;;1.92;1.60;;;;;;;12.84;92.23;97634.69;5011174;28;20039;-78
2023/08/07 03:35:52;;;;;;;4.10;1.70;;;;;;;12.90;92.66;97639.00;5003569;28;20025;-77
2023/08/07 03:38:19;;;;;;;1.77;1.63;;;;;;;12.78;92.71;97630.38;4999415;28;20044;-77
2023/08/07 03:40:44;;;;;;;1.67;1.58;;;;;;;12.77;92.51;97620.63;5009458;28;20048;-77
2023/08/07 03:43:10;;;;;;;1.98;1.50;;;;;;;12.70;92.42;97617.41;5010507;28;20045;-78
2023/08/07 03:45:35;;;;;;;2.47;1.50;;;;;;;12.61;92.38;97613.63;5021763;28;20021;-78
2023/08/07 03:48:01;;;;;;;1.73;1.50;;;;;;;12.80;92.19;97639.84;5027653;28;20044;-78
2023/08/07 03:50:29;;;;;;;1.55;1.45;;;;;;;12.80;92.58;97666.03;5000924;28;20033;-78
2023/08/07 03:52:55;;;;;;;1.88;1.48;;;;;;;12.84;92.50;97653.59;5001763;28;20083;-77
2023/08/07 03:55:20;;;;;;;1.98;1.50;;;;;;;12.58;92.16;97635.81;4997374;28;20021;-77
2023/08/07 03:57:46;;;;;;;1.77;1.65;;;;;;;12.72;92.97;97653.09;5030191;28;20083;-77
2023/08/07 04:00:13;;;;;;;2.03;1.63;;;;;;;12.70;92.32;97660.63;5003117;28;20044;-78
2023/08/07 04:02:41;;;;;;;2.97;1.70;;;;;;;12.84;92.38;97672.50;5002761;28;20041;-77
2023/08/07 04:05:08;;;;;;;1.73;1.50;;;;;;;12.77;93.05;97677.38;5013844;28;20128;-77
2023/08/07 04:07:34;;;;;;;1.92;1.50;;;;;;;12.81;91.96;97667.66;5000146;28;20053;-77
2023/08/07 04:09:59;;;;;;;2.03;1.50;;;;;;;12.51;92.31;97636.06;5003052;28;20036;-77
2023/08/07 04:12:25;;;;;;;2.35;1.40;;;;;;;12.77;91.70;97661.16;5022914;28;20033;-77
2023/08/07 04:14:50;;;;;;;1.75;1.58;;;;;;;12.85;92.55;97685.78;4996055;28;20021;-77
2023/08/07 04:17:16;;;;;;;1.83;1.67;;;;;;;12.62;92.23;97675.50;4999372;28;20114;-77
2023/08/07 04:19:41;;;;;;;1.42;1.33;;;;;;;12.39;92.64;97643.63;5001992;28;20029;-77
2023/08/07 04:22:06;;;;;;;1.65;1.48;;;;;;;12.57;92.69;97688.19;5006984;28;20033;-77
2023/08/07 04:24:32;;;;;;;5.53;1.67;;;;;;;12.71;92.58;97681.19;4995904;28;20482;-77
2023/08/07 04:26:57;;;;;;;2.28;1.67;;;;;;;12.40;92.41;97651.47;4995203;28;20040;-78
2023/08/07 04:29:24;;;;;;;1.65;1.45;;;;;;;12.47;92.29;97657.41;5035908;28;20385;-79
2023/08/07 04:31:49;;;;;;;1.95;1.80;;;;;;;12.36;92.64;97639.56;4997817;28;20029;-79
2023/08/07 04:34:17;;;;;;;1.80;1.70;;;;;;;12.40;91.90;97648.75;5015327;28;20034;-78
2023/08/07 04:36:42;;;;;;;3.83;1.90;;;;;;;12.36;92.77;97658.47;5023306;28;20069;-78
2023/08/07 04:39:08;;;;;;;1.80;1.70;;;;;;;12.66;92.38;97691.97;5024633;28;20032;-78
2023/08/07 04:41:33;;;;;;;2.28;1.90;;;;;;;12.62;92.05;97693.59;5039167;28;20034;-78
2023/08/07 04:43:59;;;;;;;1.92;1.80;;;;;;;12.43;92.30;97685.22;5032496;28;20388;-78
2023/08/07 04:46:24;;;;;;;2.70;1.70;;;;;;;12.39;92.56;97665.25;5031797;28;20036;-78
2023/08/07 04:48:49;;;;;;;2.03;1.65;;;;;;;12.52;92.29;97685.47;5042442;28;20047;-78
2023/08/07 04:51:15;;;;;;;2.78;1.90;;;;;;;12.64;92.20;97710.34;5026227;28;20025;-79
2023/08/07 04:53:41;;;;;;;1.95;1.67;;;;;;;12.66;92.51;97713.59;5015724;28;20449;-78
2023/08/07 04:56:06;;;;;;;2.05;1.88;;;;;;;12.46;92.88;97704.38;5003142;28;20037;-79
2023/08/07 04:58:31;;;;;;;2.20;1.95;;;;;;;12.41;92.87;97690.06;4990550;28;20024;-79
2023/08/07 05:00:58;;;;;;;1.92;1.80;;;;;;;12.66;92.59;97713.59;5027332;28;20073;-77
2023/08/07 05:03:24;;;;;;;3.38;1.70;;;;;;;12.70;92.23;97726.28;5017213;28;20021;-78
2023/08/07 05:05:49;;;;;;;2.58;1.98;;;;;;;12.35;92.15;97696.53;5005129;28;20030;-77
2023/08/07 05:08:15;;;;;;;3.63;2.05;;;;;;;12.56;92.11;97729.78;4996391;28;20494;-78
2023/08/07 05:10:41;;;;;;;2.45;1.90;;;;;;;12.38;92.40;97691.41;5000749;28;20128;-78
2023/08/07 05:13:06;;;;;;;4.47;2.00;;;;;;;12.57;91.69;97717.91;5032377;28;20132;-78
2023/08/07 05:15:31;;;;;;;3.10;2.25;;;;;;;12.59;91.59;97713.03;5032798;28;20033;-77
2023/08/07 05:17:57;;;;;;;2.30;2.03;;;;;;;12.52;91.32;97712.50;5001534;28;20140;-77
2023/08/07 05:20:22;;;;;;;3.08;2.25;;;;;;;12.51;90.99;97721.69;5035630;28;20037;-77
2023/08/07 05:22:48;;;;;;;2.20;2.00;;;;;;;12.60;91.27;97739.00;5001299;28;20101;-78
2023/08/07 05:25:17;;;;;;;4.97;2.30;;;;;;;12.60;91.82;97730.88;5024595;28;20041;-77
2023/08/07 05:27:43;;;;;;;3.30;2.22;;;;;;;12.49;91.46;97732.75;4990983;28;20017;-77
2023/08/07 05:30:09;;;;;;;3.63;2.20;;;;;;;12.45;90.82;97713.59;5021453;28;20515;-78
2023/08/07 05:32:37;;;;;;;2.83;2.38;;;;;;;12.45;91.30;97728.97;5015400;28;20116;-78
2023/08/07 05:35:04;;;;;;;4.00;2.65;;;;;;;12.57;91.35;97731.41;5034327;28;20030;-78
2023/08/07 05:37:31;;;;;;;3.42;2.40;;;;;;;12.44;90.88;97728.16;5016656;28;20021;-78
2023/08/07 05:39:56;;;;;;;3.47;2.63;;;;;;;12.61;91.19;97746.00;5025744;28;20048;-79
2023/08/07 05:42:22;;;;;;;3.55;2.50;;;;;;;12.24;91.09;97701.13;5021352;28;20418;-76
2023/08/07 05:44:47;;;;;;;4.03;2.88;;;;;;;12.35;91.58;97708.16;5038453;28;20037;-77
2023/08/07 05:47:13;;;;;;;7.53;3.15;;;;;;;12.60;91.47;97766.81;5031305;28;20064;-77
2023/08/07 05:49:38;;;;;;;5.85;2.85;;;;;;;12.67;90.83;97758.44;5045112;28;20041;-76
2023/08/07 05:52:04;;;;;;;4.20;2.65;;;;;;;12.43;90.52;97737.34;5031823;28;20021;-77
2023/08/07 05:54:29;;;;;;;3.00;2.72;;;;;;;12.61;90.77;97764.91;5015188;28;20559;-77
2023/08/07 05:56:55;;;;;;;3.78;2.70;;;;;;;12.66;90.66;97762.22;4998633;28;20022;-77
2023/08/07 05:59:20;;;;;;;4.45;2.60;;;;;;;12.38;91.16;97745.44;4994577;28;20029;-76
2023/08/07 06:01:45;;;;;;;3.85;2.40;;;;;;;12.66;90.78;97768.44;5021508;28;20467;-78
2023/08/07 06:04:11;;;;;;;3.13;2.80;;;;;;;12.54;91.01;97769.75;5022466;28;20037;-77
2023/08/07 06:06:39;;;;;;;3.22;2.70;;;;;;;12.49;90.32;97747.06;4995541;28;20505;-77
2023/08/07 06:09:04;;;;;;;2.70;2.50;;;;;;;12.32;90.58;97697.88;4999228;28;20087;-78
2023/08/07 06:11:29;;;;;;;3.67;2.80;;;;;;;12.63;90.16;97757.34;4969279;28;20025;-77
2023/08/07 06:13:55;;;;;;;3.00;2.70;;;;;;;12.59;91.00;97756.25;5044335;28;20037;-77
2023/08/07 06:16:20;;;;;;;4.22;2.67;;;;;;;12.61;90.76;97759.50;5004756;28;20029;-77
2023/08/07 06:18:46;;;;;;;7.55;2.97;;;;;;;12.82;90.41;97775.47;5022578;28;20037;-78
2023/08/07 06:21:11;;;;;;;5.28;2.90;;;;;;;12.73;90.65;97785.19;5011628;28;20025;-77
2023/08/07 06:23:37;;;;;;;2.75;2.55;;;;;;;12.72;90.55;97793.59;5009787;28;20098;-77
2023/08/07 06:26:07;;;;;;;3.88;2.78;;;;;;;12.65;90.09;97760.63;5034561;28;20026;-77
2023/08/07 06:28:33;;;;;;;5.22;2.97;;;;;;;12.67;89.74;97755.75;5010644;28;20112;-76
2023/08/07 06:31:06;;;;;;;3.20;2.58;;;;;;;12.60;90.06;97772.22;4998798;28;20447;-77
2023/08/07 06:33:33;;;;;;;3.78;2.63;;;;;;;12.85;89.72;97793.06;5002437;28;20033;-76
2023/08/07 06:35:58;;;;;;;4.03;2.92;;;;;;;12.86;89.92;97778.47;5012385;28;20104;-77
2023/08/07 06:38:24;;;;;;;3.00;2.60;;;;;;;12.76;89.62;97770.34;5003355;28;20076;-76
2023/08/07 06:40:49;;;;;;;3.42;2.53;;;;;;;12.89;89.83;97803.06;5001230;28;20481;-77
2023/08/07 06:43:15;;;;;;;3.40;2.85;;;;;;;13.01;89.49;97805.50;5039537;28;20090;-78
2023/08/07 06:45:40;;;;;;;3.67;3.13;;;;;;;12.67;89.25;97753.03;5005952;28;20018;-77
2023/08/07 06:48:05;;;;;;;5.88;3.13;;;;;;;12.97;89.23;97799.03;5021223;28;20032;-78
2023/08/07 06:50:31;;;;;;;7.30;3.05;;;;;;;12.75;89.53;97766.00;5013467;28;20548;-77
2023/08/07 06:52:56;;;;;;;4.78;2.78;;;;;;;12.91;89.44;97789.25;5028860;28;20055;-78
2023/08/07 06:55:22;;;;;;;3.95;2.80;;;;;;;12.92;89.17;97807.13;5001947;28;20021;-79
2023/08/07 06:57:47;;;;;;;4.50;3.17;;;;;;;12.90;89.21;97779.56;5009949;28;20559;-79
2023/08/07 07:00:13;;;;;;;5.05;3.15;;;;;;;12.83;88.95;97779.00;5004075;28;20075;-77
2023/08/07 07:02:39;;;;;;;3.38;3.08;;;;;;;12.91;89.09;97791.97;4987777;28;20034;-78
2023/08/07 07:05:04;;;;;;;3.60;3.00;;;;;;;12.89;89.38;97797.66;5002276;28;20433;-76
2023/08/07 07:07:30;;;;;;;5.57;3.08;;;;;;;12.85;89.70;97814.66;5022995;28;20095;-78
2023/08/07 07:09:57;;;;;;;3.92;3.10;;;;;;;12.83;89.23;97806.03;5006176;28;20642;-77
2023/08/07 07:12:23;;;;;;;3.92;2.80;;;;;;;12.83;88.47;97795.22;5041668;28;20037;-77
2023/08/07 07:14:48;;;;;;;3.80;3.20;;;;;;;12.91;89.03;97808.19;5033115;28;20049;-77
2023/08/07 07:17:14;;;;;;;6.53;3.50;;;;;;;12.82;88.52;97809.78;5049722;28;20124;-78
2023/08/07 07:19:40;;;;;;;3.33;2.95;;;;;;;12.63;89.55;97785.19;5005893;28;20029;-79
2023/08/07 07:22:05;;;;;;;4.07;2.72;;;;;;;12.91;87.88;97808.19;5006089;28;20033;-78
2023/08/07 07:24:30;;;;;;;4.30;3.03;;;;;;;12.91;88.55;97832.50;5028485;28;20017;-76
2023/08/07 07:26:56;;;;;;;4.45;3.05;;;;;;;12.68;89.18;97803.28;4997366;28;20120;-78
2023/08/07 07:29:21;;;;;;;5.60;3.28;;;;;;;13.05;88.47;97853.38;5047216;28;20472;-77
2023/08/07 07:31:47;;;;;;;3.70;3.30;;;;;;;12.98;88.98;97844.69;5000197;28;20120;-76
2023/08/07 07:34:15;;;;;;;3.70;3.25;;;;;;;12.99;89.75;97856.31;5031287;28;20021;-78
2023/08/07 07:36:41;;;;;;;3.30;2.95;;;;;;;13.07;88.98;97855.81;5012922;28;20170;-77
2023/08/07 07:39:06;;;;;;;5.13;2.88;;;;;;;12.95;89.22;97852.53;5018505;28;20029;-77
2023/08/07 07:41:31;;;;;;;3.55;3.20;;;;;;;12.89;89.22;97831.97;5017256;28;20167;-78
2023/08/07 07:43:57;;;;;;;4.30;3.10;;;;;;;12.89;89.10;97848.19;5021718;28;20115;-77
2023/08/07 07:46:23;;;;;;;3.45;3.15;;;;;;;12.99;88.89;97869.84;5043366;28;20052;-77
2023/08/07 07:48:49;;;;;;;3.22;2.75;;;;;;;12.95;87.64;97847.91;5064577;28;20613;-78
2023/08/07 07:51:14;;;;;;;4.88;3.28;;;;;;;12.82;88.00;97840.34;5022214;28;20132;-77
2023/08/07 07:53:40;;;;;;;4.45;3.03;;;;;;;12.91;87.81;97868.47;5030939;28;20174;-78
2023/08/07 07:56:05;;;;;;;5.47;3.10;;;;;;;12.67;88.57;97834.09;5013737;28;20487;-78
2023/08/07 07:58:30;;;;;;;4.25;2.95;;;;;;;12.95;88.00;97876.88;5025093;28;20024;-78
2023/08/07 08:00:56;;;;;;;3.63;2.90;;;;;;;12.86;88.50;97881.16;5027554;28;20041;-77
2023/08/07 08:03:23;;;;;;;3.97;2.70;;;;;;;12.88;88.41;97906.03;5007121;28;20029;-77
2023/08/07 08:05:50;;;;;;;3.50;2.90;;;;;;;12.90;88.68;97904.69;5012439;28;20127;-78
2023/08/07 08:08:15;;;;;;;4.20;3.30;;;;;;;12.91;88.43;97883.84;4986562;28;20476;-76
2023/08/07 08:10:41;;;;;;;3.85;3.30;;;;;;;12.89;88.52;97902.25;4975313;28;20038;-77
2023/08/07 08:13:09;;;;;;;3.05;2.75;;;;;;;13.00;87.44;97884.97;5000829;28;20029;-78
2023/08/07 08:15:34;;;;;;;3.40;3.10;;;;;;;12.78;89.17;97916.81;5003022;28;20034;-76
2023/08/07 08:17:59;;;;;;;3.17;2.90;;;;;;;12.86;89.77;97919.00;4999563;28;20504;-78
2023/08/07 08:20:25;;;;;;;2.95;2.63;;;;;;;12.95;89.12;97933.63;5030390;28;20373;-77
2023/08/07 08:22:50;;;;;;;6.70;3.05;;;;;;;12.81;89.04;97902.78;5043275;28;20025;-78
2023/08/07 08:25:17;;;;;;;6.03;3.38;;;;;;;12.39;89.42;97836.16;5027435;28;20079;-78
2023/08/07 08:27:43;;;;;;;4.78;2.92;;;;;;;13.06;89.50;97925.31;5032860;28;20059;-77
2023/08/07 08:30:09;;;;;;;3.53;2.75;;;;;;;12.84;88.90;97896.81;4997475;28;20098;-78
2023/08/07 08:32:34;;;;;;;5.53;3.10;;;;;;;12.98;89.65;97927.66;5007613;28;20100;-77
2023/08/07 08:35:00;;;;;;;4.15;3.28;;;;;;;12.69;90.13;97899.47;5022108;28;20057;-77
2023/08/07 08:37:25;;;;;;;4.53;3.00;;;;;;;12.91;89.04;97908.19;5001466;28;20032;-76
2023/08/07 08:39:50;;;;;;;3.80;3.13;;;;;;;13.10;89.12;97944.50;5024587;28;20502;-77
2023/08/07 08:42:19;;;;;;;4.72;3.20;;;;;;;13.00;88.74;97925.50;5051495;28;20025;-77
2023/08/07 08:45:03;;;;;;;5.50;3.40;;;;;;;12.94;90.14;97942.81;5041012;28;20112;-77
2023/08/07 08:47:29;;;;;;;4.00;3.50;;;;;;;12.93;89.86;97914.13;5020488;28;20052;-77
2023/08/07 08:50:15;;;;;;;6.43;3.25;;;;;;;13.11;88.83;97943.44;5017098;28;20022;-77
2023/08/07 08:52:43;;;;;;;4.68;3.47;;;;;;;13.05;89.49;97949.84;5008321;28;20041;-77
2023/08/07 08:55:10;;;;;;;5.05;3.47;;;;;;;13.10;89.12;97930.97;5004293;28;20558;-78
2023/08/07 08:57:35;;;;;;;4.15;3.60;;;;;;;13.18;89.06;97942.06;5008777;28;20639;-77
2023/08/07 09:00:06;;;;;;;6.38;3.70;;;;;;;13.06;89.88;97956.94;5025960;28;20029;-77
2023/08/07 09:02:32;;;;;;;5.10;3.58;;;;;;;12.77;89.49;97897.06;5011831;28;20085;-77
2023/08/07 09:04:57;;;;;;;5.43;4.00;;;;;;;13.12;89.41;97934.22;5019222;28;20406;-78
2023/08/07 09:07:23;;;;;;;6.25;3.90;;;;;;;13.04;89.87;97926.63;5025068;28;20467;-77
2023/08/07 09:09:49;;;;;;;5.35;3.70;;;;;;;13.11;90.27;97948.84;4998907;28;20061;-77
2023/08/07 09:12:26;;;;;;;5.82;3.67;;;;;;;13.05;90.56;97955.25;5002183;28;20442;-77
2023/08/07 09:14:56;;;;;;;7.30;4.25;;;;;;;13.11;90.17;97960.47;5003823;28;20048;-77
2023/08/07 09:17:29;;;;;;;5.18;4.07;;;;;;;13.19;90.60;97972.63;4996046;28;20104;-77
2023/08/07 09:19:54;;;;;;;4.53;3.78;;;;;;;12.96;91.03;97951.44;5016455;28;20037;-77
2023/08/07 09:22:20;;;;;;;7.13;4.38;;;;;;;13.18;91.08;97976.44;4998348;28;20032;-77
2023/08/07 09:24:46;;;;;;;4.65;4.22;;;;;;;13.00;90.82;97949.84;4999975;28;20069;-77
2023/08/07 09:27:11;;;;;;;5.38;4.25;;;;;;;13.23;90.71;97976.47;5016703;28;20044;-78
2023/08/07 09:29:39;;;;;;;6.35;3.88;;;;;;;13.21;91.19;97983.22;5012233;28;20438;-77
2023/08/07 09:32:08;;;;;;;6.22;4.40;;;;;;;12.88;92.06;97927.66;5001099;28;20018;-77
2023/08/07 09:34:34;;;;;;;6.90;4.38;;;;;;;12.67;90.98;97894.31;5001412;28;20037;-78
2023/08/07 09:36:59;;;;;;;4.32;3.90;;;;;;;13.05;91.38;97976.91;5015831;28;20112;-77
2023/08/07 09:39:25;;;;;;;4.50;4.10;;;;;;;12.98;91.45;97969.03;5016705;28;20043;-77
2023/08/07 09:41:52;;;;;;;7.03;4.40;;;;;;;13.13;92.27;97996.16;4984170;28;20030;-77
2023/08/07 09:44:17;;;;;;;6.78;4.47;;;;;;;13.23;90.94;98003.50;5014830;28;20048;-77
2023/08/07 09:46:43;;;;;;;9.80;4.65;;;;;;;13.06;91.01;97978.56;5015402;28;20021;-78
2023/08/07 09:49:09;;;;;;;6.07;4.05;;;;;;;13.08;91.09;97987.22;5034256;28;20056;-76
2023/08/07 09:51:47;;;;;;;5.70;4.13;;;;;;;13.19;90.40;98007.78;5015574;28;20095;-77
2023/08/07 09:54:13;;;;;;;8.02;4.55;;;;;;;13.30;90.52;98022.19;5017426;28;20029;-78
2023/08/07 09:56:40;;;;;;;6.28;4.15;;;;;;;12.99;90.35;97988.78;4998415;28;20546;-77
2023/08/07 09:59:05;;;;;;;5.78;4.03;;;;;;;13.18;90.30;98012.38;4998321;28;20479;-77
2023/08/07 10:01:31;;;;;;;5.28;4.22;;;;;;;13.32;90.41;98020.03;5029132;28;20120;-77
2023/08/07 10:03:57;;;;;;;4.28;3.88;;;;;;;13.23;89.97;98006.22;4999030;28;20037;-77
2023/08/07 10:06:23;;;;;;;5.72;3.83;;;;;;;13.27;89.98;98012.69;5001540;28;20034;-78
2023/08/07 10:08:48;;;;;;;9.68;3.80;;;;;;;13.22;90.02;98015.38;5026067;28;20040;-77
2023/08/07 10:11:14;;;;;;;4.85;3.53;;;;;;;13.30;89.51;98019.47;5018255;28;20025;-77
2023/08/07 10:13:40;;;;;;;5.50;3.78;;;;;;;13.18;89.95;97996.16;5027784;28;20494;-77
2023/08/07 10:16:06;;;;;;;5.38;4.25;;;;;;;13.22;89.56;98015.38;5002203;28;20111;-77
2023/08/07 10:18:31;;;;;;;4.00;3.60;;;;;;;13.24;88.39;97991.59;5008702;28;20148;-77
2023/08/07 10:20:57;;;;;;;5.43;3.45;;;;;;;13.45;87.83;98020.31;5014934;28;20032;-77
2023/08/07 10:23:23;;;;;;;4.88;3.67;;;;;;;13.33;89.14;98022.44;5014909;28;20033;-77
2023/08/07 10:25:50;;;;;;;6.00;3.40;;;;;;;13.14;88.25;97996.97;5018306;28;20028;-77
2023/08/07 10:28:17;;;;;;;5.95;3.63;;;;;;;13.40;88.57;98023.00;4997503;28;20060;-77
2023/08/07 10:30:42;;;;;;;5.15;3.40;;;;;;;13.45;88.43;98036.56;4995184;28;20480;-77
2023/08/07 10:33:10;;;;;;;5.25;3.58;;;;;;;13.54;88.21;98023.31;5014517;28;20072;-76
2023/08/07 10:35:35;;;;;;;3.63;3.17;;;;;;;13.73;87.31;98046.91;4998434;28;20487;-77
2023/08/07 10:38:08;;;;;;;7.75;3.70;;;;;;;13.63;86.74;98032.53;4998548;28;20041;-77
2023/08/07 10:40:33;;;;;;;5.05;3.55;;;;;;;13.53;86.81;98017.09;5002951;28;20057;-78
2023/08/07 10:43:13;;;;;;;4.68;3.50;;;;;;;13.69;86.92;98043.13;5038806;28;20422;-77
2023/08/07 10:45:39;;;;;;;7.57;3.83;;;;;;;13.53;86.15;98006.28;5001875;28;20061;-77
2023/08/07 10:48:07;;;;;;;5.55;3.72;;;;;;;13.67;85.05;98047.97;4989241;28;20151;-78
2023/08/07 10:50:54;;;;;;;5.68;3.13;;;;;;;13.61;85.92;98027.38;4998727;28;20049;-76
2023/08/07 10:53:35;;;;;;;;;;;;;;;13.72;86.33;98052.59;5002207;28;20041;-77
2023/08/07 10:56:02;;;;;;;7.10;3.25;;;;;;;13.72;84.78;98020.91;5031287;28;19963;-78
2023/08/07 10:58:39;;;;;;;6.05;3.58;;;;;;;13.73;85.38;98041.50;5006474;28;20056;-78
2023/08/07 11:01:26;;;;;;;6.88;3.60;;;;;;;13.73;84.62;98046.09;4999437;28;20037;-78
2023/08/07 11:03:59;;;;;;;5.00;3.42;;;;;;;13.56;85.35;98027.38;5035594;28;20033;-78
2023/08/07 11:06:27;;;;;;;3.80;3.35;;;;;;;13.51;85.64;98024.66;4990326;28;20033;-78
2023/08/07 11:08:53;;;;;;;5.57;3.55;;;;;;;13.76;85.40;98049.06;5011721;28;20033;-78
2023/08/07 11:11:18;;;;;;;7.78;3.55;;;;;;;13.88;85.48;98063.16;5004187;28;20040;-78
2023/08/07 11:13:44;;;;;;;4.63;3.40;;;;;;;13.73;85.45;98044.19;5019083;28;20112;-77
2023/08/07 11:16:09;;;;;;;5.95;3.28;;;;;;;13.49;84.30;98031.44;4986538;28;20180;-78
2023/08/07 11:18:41;;;;;;;4.30;3.38;;;;;;;13.83;83.96;98030.69;5035796;28;20029;-78
2023/08/07 11:21:10;;;;;;;3.92;3.00;;;;;;;13.79;83.89;98035.00;4992377;28;20087;-80
2023/08/07 11:23:39;;;;;;;5.18;3.25;;;;;;;13.74;82.54;98012.53;5015576;28;20025;-78
2023/08/07 11:26:06;;;;;;;4.22;3.05;;;;;;;13.91;82.69;98040.16;4989009;28;20041;-78
2023/08/07 11:28:31;;;;;;;5.75;3.25;;;;;;;14.08;82.11;98056.97;5021961;28;20105;-77
2023/08/07 11:30:57;;;;;;;7.20;3.10;;;;;;;14.01;83.44;98061.00;4994411;28;20043;-78
2023/08/07 11:33:27;;;;;;;3.70;3.10;;;;;;;14.12;83.14;98057.25;5026357;28;20026;-78